sensor_id;sensor_type;location;lat;lon;timestamp;temperature;humidity
8541;DHT22;4308;51.294;6.590;2023-07-30T08:51:13;21.10;99.90
8541;DHT22;4308;51.294;6.590;2023-07-30T08:53:42;21.40;99.90
8541;DHT22;4308;51.294;6.590;2023-07-30T08:56:09;21.70;99.90
8541;DHT22;4308;51.294;6.590;2023-07-30T08:58:37;21.90;99.90
8541;DHT22;4308;51.294;6.590;2023-07-30T09:01:09;22.00;99.90
8541;DHT22;4308;51.294;6.590;2023-07-30T09:03:39;22.30;99.90
8541;DHT22;4308;51.294;6.590;2023-07-30T09:06:07;22.20;99.90
8541;DHT22;4308;51.294;6.590;2023-07-30T09:08:35;22.20;99.90
8541;DHT22;4308;51.294;6.590;2023-07-30T09:11:09;22.00;99.90
8541;DHT22;4308;51.294;6.590;2023-07-30T09:13:41;21.80;99.90
8541;DHT22;4308;51.294;6.590;2023-07-30T09:16:12;21.60;99.90
8541;DHT22;4308;51.294;6.590;2023-07-30T09:18:46;21.80;99.90
8541;DHT22;4308;51.294;6.590;2023-07-30T09:21:17;21.90;99.90
8541;DHT22;4308;51.294;6.590;2023-07-30T09:23:47;22.10;99.90
8541;DHT22;4308;51.294;6.590;2023-07-30T09:26:14;22.00;99.90
8541;DHT22;4308;51.294;6.590;2023-07-30T09:28:42;21.80;99.90
8541;DHT22;4308;51.294;6.590;2023-07-30T09:31:09;21.80;99.90
8541;DHT22;4308;51.294;6.590;2023-07-30T09:33:49;21.50;99.90
8541;DHT22;4308;51.294;6.590;2023-07-30T09:36:19;21.80;99.90
8541;DHT22;4308;51.294;6.590;2023-07-30T09:38:46;21.80;99.90
8541;DHT22;4308;51.294;6.590;2023-07-30T09:41:14;21.80;99.90
8541;DHT22;4308;51.294;6.590;2023-07-30T09:43:42;22.20;99.90
8541;DHT22;4308;51.294;6.590;2023-07-30T09:48:37;22.60;99.90
8541;DHT22;4308;51.294;6.590;2023-07-30T09:51:04;23.00;99.90
8541;DHT22;4308;51.294;6.590;2023-07-30T09:53:32;23.20;99.90
8541;DHT22;4308;51.294;6.590;2023-07-30T09:56:06;23.30;99.90
8541;DHT22;4308;51.294;6.590;2023-07-30T09:58:34;23.70;99.90
8541;DHT22;4308;51.294;6.590;2023-07-30T10:01:02;23.60;99.90
8541;DHT22;4308;51.294;6.590;2023-07-30T10:03:32;23.40;99.90
8541;DHT22;4308;51.294;6.590;2023-07-30T10:06:05;23.30;99.90
8541;DHT22;4308;51.294;6.590;2023-07-30T10:08:37;23.30;99.90
8541;DHT22;4308;51.294;6.590;2023-07-30T10:11:07;23.60;99.90
8541;DHT22;4308;51.294;6.590;2023-07-30T10:13:36;23.50;99.90
8541;DHT22;4308;51.294;6.590;2023-07-30T10:16:09;23.40;99.90
8541;DHT22;4308;51.294;6.590;2023-07-30T10:18:42;23.60;99.90
8541;DHT22;4308;51.294;6.590;2023-07-30T10:21:14;23.80;99.90
8541;DHT22;4308;51.294;6.590;2023-07-30T10:24:00;23.70;99.90
8541;DHT22;4308;51.294;6.590;2023-07-30T10:26:31;23.70;99.90
8541;DHT22;4308;51.294;6.590;2023-07-30T10:31:40;23.50;99.90
8541;DHT22;4308;51.294;6.590;2023-07-30T10:34:09;23.40;99.90
8541;DHT22;4308;51.294;6.590;2023-07-30T10:36:45;23.50;99.90
8541;DHT22;4308;51.294;6.590;2023-07-30T10:39:14;23.70;99.90
8541;DHT22;4308;51.294;6.590;2023-07-30T10:41:48;23.70;99.90
8541;DHT22;4308;51.294;6.590;2023-07-30T10:44:29;23.60;99.90
8541;DHT22;4308;51.294;6.590;2023-07-30T10:46:59;23.50;99.90
8541;DHT22;4308;51.294;6.590;2023-07-30T10:49:27;23.60;99.90
8541;DHT22;4308;51.294;6.590;2023-07-30T10:51:57;23.40;99.90
8541;DHT22;4308;51.294;6.590;2023-07-30T10:54:35;23.40;99.90
8541;DHT22;4308;51.294;6.590;2023-07-30T10:57:03;23.20;99.90
8541;DHT22;4308;51.294;6.590;2023-07-30T10:59:35;23.50;99.90
8541;DHT22;4308;51.294;6.590;2023-07-30T11:02:03;24.00;99.90
8541;DHT22;4308;51.294;6.590;2023-07-30T11:04:34;24.40;99.90
8541;DHT22;4308;51.294;6.590;2023-07-30T11:07:02;24.30;99.90
8541;DHT22;4308;51.294;6.590;2023-07-30T11:09:29;24.40;99.90
8541;DHT22;4308;51.294;6.590;2023-07-30T11:11:57;24.20;99.90
8541;DHT22;4308;51.294;6.590;2023-07-30T11:14:25;24.30;99.90
8541;DHT22;4308;51.294;6.590;2023-07-30T11:16:57;24.40;99.90
8541;DHT22;4308;51.294;6.590;2023-07-30T11:19:28;24.50;99.90
8541;DHT22;4308;51.294;6.590;2023-07-30T11:21:57;24.60;99.90
8541;DHT22;4308;51.294;6.590;2023-07-30T11:24:35;25.70;99.90
8541;DHT22;4308;51.294;6.590;2023-07-30T11:27:03;24.50;99.90
8541;DHT22;4308;51.294;6.590;2023-07-30T11:29:31;24.40;99.90
8541;DHT22;4308;51.294;6.590;2023-07-30T11:31:59;24.30;99.90
8541;DHT22;4308;51.294;6.590;2023-07-30T11:34:27;24.20;99.90
8541;DHT22;4308;51.294;6.590;2023-07-30T11:36:55;24.30;99.90
8541;DHT22;4308;51.294;6.590;2023-07-30T11:39:23;24.20;99.90
8541;DHT22;4308;51.294;6.590;2023-07-30T11:41:51;24.30;99.90
8541;DHT22;4308;51.294;6.590;2023-07-30T11:44:38;24.50;99.90
8541;DHT22;4308;51.294;6.590;2023-07-30T11:47:07;24.60;99.90
8541;DHT22;4308;51.294;6.590;2023-07-30T11:49:34;24.30;99.90
8541;DHT22;4308;51.294;6.590;2023-07-30T11:52:09;24.30;99.90
8541;DHT22;4308;51.294;6.590;2023-07-30T11:54:37;24.30;99.90
8541;DHT22;4308;51.294;6.590;2023-07-30T11:57:04;24.20;99.90
8541;DHT22;4308;51.294;6.590;2023-07-30T11:59:32;24.20;99.90
8541;DHT22;4308;51.294;6.590;2023-07-30T12:01:59;24.20;99.90
8541;DHT22;4308;51.294;6.590;2023-07-30T12:04:42;24.20;99.90
8541;DHT22;4308;51.294;6.590;2023-07-30T12:07:10;24.00;99.90
8541;DHT22;4308;51.294;6.590;2023-07-30T12:09:37;23.90;99.90
8541;DHT22;4308;51.294;6.590;2023-07-30T12:12:06;23.90;99.90
8541;DHT22;4308;51.294;6.590;2023-07-30T12:17:18;23.80;99.90
8541;DHT22;4308;51.294;6.590;2023-07-30T12:19:45;23.70;99.90
8541;DHT22;4308;51.294;6.590;2023-07-30T12:22:12;23.70;99.90
8541;DHT22;4308;51.294;6.590;2023-07-30T12:24:41;24.00;99.90
8541;DHT22;4308;51.294;6.590;2023-07-30T12:27:08;24.00;99.90
8541;DHT22;4308;51.294;6.590;2023-07-30T12:29:35;23.90;99.90
8541;DHT22;4308;51.294;6.590;2023-07-30T12:32:03;23.60;99.90
8541;DHT22;4308;51.294;6.590;2023-07-30T12:34:31;22.90;99.90
8541;DHT22;4308;51.294;6.590;2023-07-30T12:36:58;22.60;99.90
8541;DHT22;4308;51.294;6.590;2023-07-30T12:39:26;22.80;99.90
8541;DHT22;4308;51.294;6.590;2023-07-30T12:41:53;22.70;99.90
8541;DHT22;4308;51.294;6.590;2023-07-30T12:44:20;22.50;99.90
8541;DHT22;4308;51.294;6.590;2023-07-30T12:46:48;22.40;99.90
8541;DHT22;4308;51.294;6.590;2023-07-30T12:49:15;22.30;99.90
8541;DHT22;4308;51.294;6.590;2023-07-30T12:51:42;22.20;99.90
8541;DHT22;4308;51.294;6.590;2023-07-30T12:54:10;22.40;99.90
8541;DHT22;4308;51.294;6.590;2023-07-30T12:56:37;22.30;99.90
8541;DHT22;4308;51.294;6.590;2023-07-30T12:59:04;22.40;99.90
8541;DHT22;4308;51.294;6.590;2023-07-30T13:01:38;22.40;99.90
8541;DHT22;4308;51.294;6.590;2023-07-30T13:04:07;22.40;99.90
8541;DHT22;4308;51.294;6.590;2023-07-30T13:06:35;22.40;99.90
8541;DHT22;4308;51.294;6.590;2023-07-30T13:09:02;22.50;99.90
8541;DHT22;4308;51.294;6.590;2023-07-30T13:11:30;22.60;99.90
8541;DHT22;4308;51.294;6.590;2023-07-30T13:13:57;22.70;99.90
8541;DHT22;4308;51.294;6.590;2023-07-30T13:16:24;22.80;99.90
8541;DHT22;4308;51.294;6.590;2023-07-30T13:18:52;22.90;99.90
8541;DHT22;4308;51.294;6.590;2023-07-30T13:21:19;23.00;99.90
8541;DHT22;4308;51.294;6.590;2023-07-30T13:23:46;23.10;99.90
8541;DHT22;4308;51.294;6.590;2023-07-30T13:26:13;23.20;99.90
8541;DHT22;4308;51.294;6.590;2023-07-30T13:28:41;23.30;99.90
8541;DHT22;4308;51.294;6.590;2023-07-30T13:31:08;23.30;99.90
8541;DHT22;4308;51.294;6.590;2023-07-30T13:33:36;23.40;99.90
8541;DHT22;4308;51.294;6.590;2023-07-30T13:36:04;23.30;99.90
8541;DHT22;4308;51.294;6.590;2023-07-30T13:38:32;23.40;99.90
8541;DHT22;4308;51.294;6.590;2023-07-30T13:40:59;23.40;99.90
8541;DHT22;4308;51.294;6.590;2023-07-30T13:43:27;23.60;99.90
8541;DHT22;4308;51.294;6.590;2023-07-30T13:45:54;23.70;99.90
8541;DHT22;4308;51.294;6.590;2023-07-30T13:48:21;23.80;99.90
8541;DHT22;4308;51.294;6.590;2023-07-30T13:50:49;23.90;99.90
8541;DHT22;4308;51.294;6.590;2023-07-30T13:53:19;23.90;99.90
8541;DHT22;4308;51.294;6.590;2023-07-30T13:55:47;23.90;99.90
8541;DHT22;4308;51.294;6.590;2023-07-30T13:58:14;24.10;99.90
8541;DHT22;4308;51.294;6.590;2023-07-30T14:00:42;24.10;99.90
8541;DHT22;4308;51.294;6.590;2023-07-30T14:03:09;24.60;99.90
8541;DHT22;4308;51.294;6.590;2023-07-30T14:05:38;24.50;99.90
8541;DHT22;4308;51.294;6.590;2023-07-30T14:08:06;24.70;99.90
8541;DHT22;4308;51.294;6.590;2023-07-30T14:10:34;24.80;99.90
8541;DHT22;4308;51.294;6.590;2023-07-30T14:13:01;24.80;99.90
8541;DHT22;4308;51.294;6.590;2023-07-30T14:15:28;24.70;99.90
8541;DHT22;4308;51.294;6.590;2023-07-30T14:17:56;24.80;99.90
8541;DHT22;4308;51.294;6.590;2023-07-30T14:20:23;24.80;99.90
8541;DHT22;4308;51.294;6.590;2023-07-30T14:22:53;24.90;99.90
8541;DHT22;4308;51.294;6.590;2023-07-30T14:25:20;25.40;99.90
8541;DHT22;4308;51.294;6.590;2023-07-30T14:27:48;25.40;99.90
8541;DHT22;4308;51.294;6.590;2023-07-30T14:30:15;25.40;99.90
8541;DHT22;4308;51.294;6.590;2023-07-30T14:32:42;25.20;99.90
8541;DHT22;4308;51.294;6.590;2023-07-30T14:35:10;25.20;99.90
8541;DHT22;4308;51.294;6.590;2023-07-30T14:37:37;25.10;99.90
8541;DHT22;4308;51.294;6.590;2023-07-30T14:40:05;25.00;99.90
8541;DHT22;4308;51.294;6.590;2023-07-30T14:42:32;24.90;99.90
8541;DHT22;4308;51.294;6.590;2023-07-30T14:45:00;24.80;99.90
8541;DHT22;4308;51.294;6.590;2023-07-30T14:47:27;25.10;99.90
8541;DHT22;4308;51.294;6.590;2023-07-30T14:49:55;25.30;99.90
8541;DHT22;4308;51.294;6.590;2023-07-30T14:52:22;25.50;99.90
8541;DHT22;4308;51.294;6.590;2023-07-30T14:54:49;25.40;99.90
8541;DHT22;4308;51.294;6.590;2023-07-30T14:57:17;25.20;99.90
8541;DHT22;4308;51.294;6.590;2023-07-30T14:59:44;25.30;99.90
8541;DHT22;4308;51.294;6.590;2023-07-30T15:02:11;25.40;99.90
8541;DHT22;4308;51.294;6.590;2023-07-30T15:04:39;25.20;99.90
8541;DHT22;4308;51.294;6.590;2023-07-30T15:07:07;25.10;99.90
8541;DHT22;4308;51.294;6.590;2023-07-30T15:09:34;24.80;99.90
8541;DHT22;4308;51.294;6.590;2023-07-30T15:12:02;24.70;99.90
8541;DHT22;4308;51.294;6.590;2023-07-30T15:14:29;24.60;99.90
8541;DHT22;4308;51.294;6.590;2023-07-30T15:16:57;24.50;99.90
8541;DHT22;4308;51.294;6.590;2023-07-30T15:19:24;24.50;99.90
8541;DHT22;4308;51.294;6.590;2023-07-30T15:21:51;24.60;99.90
8541;DHT22;4308;51.294;6.590;2023-07-30T15:24:19;24.80;99.90
8541;DHT22;4308;51.294;6.590;2023-07-30T15:26:46;24.90;99.90
8541;DHT22;4308;51.294;6.590;2023-07-30T15:29:13;25.20;99.90
8541;DHT22;4308;51.294;6.590;2023-07-30T15:31:40;25.50;99.90
8541;DHT22;4308;51.294;6.590;2023-07-30T15:34:08;25.60;99.90
8541;DHT22;4308;51.294;6.590;2023-07-30T15:36:38;25.60;99.90
8541;DHT22;4308;51.294;6.590;2023-07-30T15:39:06;25.50;99.90
8541;DHT22;4308;51.294;6.590;2023-07-30T15:41:33;25.40;99.90
8541;DHT22;4308;51.294;6.590;2023-07-30T15:44:01;25.30;99.90
8541;DHT22;4308;51.294;6.590;2023-07-30T15:46:28;25.40;99.90
8541;DHT22;4308;51.294;6.590;2023-07-30T15:48:55;25.50;99.90
8541;DHT22;4308;51.294;6.590;2023-07-30T15:51:23;25.30;99.90
8541;DHT22;4308;51.294;6.590;2023-07-30T15:53:50;25.20;99.90
8541;DHT22;4308;51.294;6.590;2023-07-30T15:56:17;24.90;99.90
8541;DHT22;4308;51.294;6.590;2023-07-30T15:58:45;24.80;99.90
8541;DHT22;4308;51.294;6.590;2023-07-30T16:01:12;24.70;99.90
8541;DHT22;4308;51.294;6.590;2023-07-30T16:03:39;24.60;99.90
8541;DHT22;4308;51.294;6.590;2023-07-30T16:06:07;24.50;99.90
8541;DHT22;4308;51.294;6.590;2023-07-30T16:08:35;24.30;99.90
8541;DHT22;4308;51.294;6.590;2023-07-30T16:11:04;24.30;99.90
8541;DHT22;4308;51.294;6.590;2023-07-30T16:13:32;24.30;99.90
8541;DHT22;4308;51.294;6.590;2023-07-30T16:16:13;24.40;99.90
8541;DHT22;4308;51.294;6.590;2023-07-30T16:18:41;24.40;99.90
8541;DHT22;4308;51.294;6.590;2023-07-30T16:21:09;24.40;99.90
8541;DHT22;4308;51.294;6.590;2023-07-30T16:23:36;24.40;99.90
8541;DHT22;4308;51.294;6.590;2023-07-30T16:26:04;24.30;99.90
8541;DHT22;4308;51.294;6.590;2023-07-30T16:28:31;24.30;99.90
8541;DHT22;4308;51.294;6.590;2023-07-30T16:30:59;24.20;99.90
8541;DHT22;4308;51.294;6.590;2023-07-30T16:33:27;24.20;99.90
8541;DHT22;4308;51.294;6.590;2023-07-30T16:35:54;24.30;99.90
8541;DHT22;4308;51.294;6.590;2023-07-30T16:38:21;24.40;99.90
8541;DHT22;4308;51.294;6.590;2023-07-30T16:40:49;24.40;99.90
8541;DHT22;4308;51.294;6.590;2023-07-30T16:43:16;24.40;99.90
8541;DHT22;4308;51.294;6.590;2023-07-30T16:45:43;24.30;99.90
8541;DHT22;4308;51.294;6.590;2023-07-30T16:48:11;24.30;99.90
8541;DHT22;4308;51.294;6.590;2023-07-30T16:50:38;24.20;99.90
8541;DHT22;4308;51.294;6.590;2023-07-30T16:53:06;24.20;99.90
8541;DHT22;4308;51.294;6.590;2023-07-30T16:55:33;24.10;99.90
8541;DHT22;4308;51.294;6.590;2023-07-30T16:58:00;24.10;99.90
8541;DHT22;4308;51.294;6.590;2023-07-30T17:00:28;24.10;99.90
8541;DHT22;4308;51.294;6.590;2023-07-30T17:02:55;24.00;99.90
8541;DHT22;4308;51.294;6.590;2023-07-30T17:05:24;23.90;99.90
8541;DHT22;4308;51.294;6.590;2023-07-30T17:07:51;23.80;99.90
8541;DHT22;4308;51.294;6.590;2023-07-30T17:10:19;23.60;99.90
8541;DHT22;4308;51.294;6.590;2023-07-30T17:12:46;23.50;99.90
8541;DHT22;4308;51.294;6.590;2023-07-30T17:15:13;23.30;99.90
8541;DHT22;4308;51.294;6.590;2023-07-30T17:17:41;23.20;99.90
8541;DHT22;4308;51.294;6.590;2023-07-30T17:20:08;23.10;99.90
8541;DHT22;4308;51.294;6.590;2023-07-30T17:22:36;22.90;99.90
8541;DHT22;4308;51.294;6.590;2023-07-30T17:25:03;22.90;99.90
8541;DHT22;4308;51.294;6.590;2023-07-30T17:27:31;22.70;99.90
8541;DHT22;4308;51.294;6.590;2023-07-30T17:29:58;22.60;99.90
8541;DHT22;4308;51.294;6.590;2023-07-30T17:32:26;22.30;99.90
8541;DHT22;4308;51.294;6.590;2023-07-30T17:34:54;22.30;99.90
8541;DHT22;4308;51.294;6.590;2023-07-30T17:37:22;22.20;99.90
8541;DHT22;4308;51.294;6.590;2023-07-30T17:39:49;22.00;99.90
8541;DHT22;4308;51.294;6.590;2023-07-30T17:42:16;21.80;99.90
8541;DHT22;4308;51.294;6.590;2023-07-30T18:02:01;19.40;99.90
8541;DHT22;4308;51.294;6.590;2023-07-30T18:04:29;19.30;99.90
8541;DHT22;4308;51.294;6.590;2023-07-30T18:06:56;19.20;99.90
8541;DHT22;4308;51.294;6.590;2023-07-30T18:09:23;19.00;99.90
8541;DHT22;4308;51.294;6.590;2023-07-30T18:11:51;18.90;99.90
8541;DHT22;4308;51.294;6.590;2023-07-30T18:19:15;18.30;99.90
8541;DHT22;4308;51.294;6.590;2023-07-30T18:21:43;18.50;99.90
8541;DHT22;4308;51.294;6.590;2023-07-30T18:24:10;18.40;99.90
8541;DHT22;4308;51.294;6.590;2023-07-30T18:26:40;18.40;99.90
8541;DHT22;4308;51.294;6.590;2023-07-30T18:29:07;18.40;99.90
8541;DHT22;4308;51.294;6.590;2023-07-30T18:31:34;18.40;99.90
8541;DHT22;4308;51.294;6.590;2023-07-30T18:34:02;18.40;99.90
8541;DHT22;4308;51.294;6.590;2023-07-30T18:36:32;18.40;99.90
8541;DHT22;4308;51.294;6.590;2023-07-30T18:39:00;18.30;99.90
8541;DHT22;4308;51.294;6.590;2023-07-30T18:41:27;18.30;99.90
8541;DHT22;4308;51.294;6.590;2023-07-30T18:43:55;18.30;99.90
8541;DHT22;4308;51.294;6.590;2023-07-30T18:46:22;18.20;99.90
8541;DHT22;4308;51.294;6.590;2023-07-30T18:48:49;18.20;99.90
8541;DHT22;4308;51.294;6.590;2023-07-30T18:51:19;18.10;99.90
8541;DHT22;4308;51.294;6.590;2023-07-30T18:53:46;18.10;99.90
